Time;durP1;ratioP1;P1;durP2;ratioP2;P2;SDS_P1;SDS_P2;PMS_P1;PMS_P2;Temp;Humidity;BMP_temperature;BMP_pressure;BME280_temperature;BME280_humidity;BME280_pressure;Samples;Min_cycle;Max_cycle;Signal;HPM_P1;HPM_P2
2021/08/18 00:00:59;;;;;;;11.45;6.43;;;16.30;83.70;;;;;;5014986;28;20062;-91
2021/08/18 00:03:28;;;;;;;15.93;6.57;;;16.30;83.70;;;;;;5013919;28;20042;-94
2021/08/18 00:05:55;;;;;;;15.70;7.07;;;16.30;83.70;;;;;;4999626;28;20050;-91
2021/08/18 00:08:22;;;;;;;14.70;6.97;;;16.30;83.70;;;;;;5015267;28;20419;-92
2021/08/18 00:10:49;;;;;;;13.85;5.93;;;16.30;83.70;;;;;;5014312;28;20424;-92
2021/08/18 00:13:17;;;;;;;12.88;5.60;;;16.30;83.70;;;;;;5014539;28;20057;-91
2021/08/18 00:15:43;;;;;;;21.88;7.07;;;16.30;83.70;;;;;;5014599;28;20037;-92
2021/08/18 00:18:10;;;;;;;17.15;6.93;;;16.30;83.70;;;;;;5014582;28;20050;-91
2021/08/18 00:20:37;;;;;;;20.38;7.45;;;16.30;83.70;;;;;;5014714;28;20049;-91
2021/08/18 00:23:05;;;;;;;19.38;7.13;;;16.30;83.70;;;;;;5014679;28;20049;-90
2021/08/18 00:25:32;;;;;;;12.38;5.78;;;16.30;83.70;;;;;;5013313;28;20096;-92
2021/08/18 00:27:59;;;;;;;22.38;6.85;;;16.30;83.80;;;;;;5014708;28;20108;-92
2021/08/18 00:30:27;;;;;;;25.08;7.90;;;16.30;83.80;;;;;;5014409;28;20123;-92
2021/08/18 00:32:54;;;;;;;18.90;8.27;;;16.30;83.80;;;;;;4997904;28;20050;-91
2021/08/18 00:35:21;;;;;;;15.77;7.35;;;16.30;83.90;;;;;;5010614;28;20123;-92
2021/08/18 00:37:48;;;;;;;20.52;9.55;;;16.30;83.90;;;;;;5013940;28;20061;-92
2021/08/18 00:40:16;;;;;;;21.00;8.57;;;16.30;83.90;;;;;;5014500;28;20055;-93
2021/08/18 00:42:44;;;;;;;19.50;7.72;;;16.30;84.00;;;;;;5014273;28;20104;-92
2021/08/18 00:45:14;;;;;;;28.27;9.88;;;16.30;84.00;;;;;;5014467;28;20058;-93
2021/08/18 00:47:43;;;;;;;24.63;9.63;;;16.30;84.00;;;;;;5013855;28;20050;-92
2021/08/18 00:50:15;;;;;;;27.33;11.15;;;16.30;84.00;;;;;;5013105;28;20058;-92
2021/08/18 00:52:42;;;;;;;20.38;10.10;;;16.30;84.00;;;;;;5014029;28;20053;-91
2021/08/18 00:55:18;;;;;;;26.95;11.43;;;16.30;84.10;;;;;;5014008;28;20434;-92
2021/08/18 00:57:45;;;;;;;26.38;12.00;;;16.30;84.10;;;;;;5013844;28;20104;-93
2021/08/18 01:00:14;;;;;;;25.83;11.15;;;16.30;84.10;;;;;;5013776;28;20042;-92
2021/08/18 01:02:46;;;;;;;28.83;10.63;;;16.30;84.20;;;;;;5013671;28;20128;-92
2021/08/18 01:05:18;;;;;;;27.88;12.18;;;16.30;84.20;;;;;;5014230;28;20053;-94
2021/08/18 01:07:46;;;;;;;23.17;11.88;;;16.30;84.20;;;;;;5013933;28;20041;-92
2021/08/18 01:10:15;;;;;;;28.92;11.50;;;16.30;84.30;;;;;;5013549;28;20053;-90
2021/08/18 01:12:43;;;;;;;17.08;8.52;;;16.30;84.30;;;;;;5012899;28;20091;-93
2021/08/18 01:15:14;;;;;;;18.38;9.52;;;16.30;84.30;;;;;;5045474;28;20045;-93
2021/08/18 01:17:43;;;;;;;20.15;9.77;;;16.30;84.30;;;;;;5012411;28;20514;-91
2021/08/18 01:20:14;;;;;;;24.00;11.40;;;16.30;84.30;;;;;;5013037;28;20049;-92
2021/08/18 01:22:41;;;;;;;20.63;10.60;;;16.30;84.30;;;;;;5013293;28;20046;-92
2021/08/18 01:25:09;;;;;;;24.05;11.07;;;16.30;84.30;;;;;;5013358;28;20053;-94
2021/08/18 01:27:42;;;;;;;32.67;12.77;;;16.30;84.30;;;;;;5013380;28;20458;-91
2021/08/18 01:30:10;;;;;;;23.50;10.57;;;16.30;84.30;;;;;;5013232;28;20112;-92
2021/08/18 01:32:46;;;;;;;26.15;12.27;;;16.30;84.30;;;;;;5013342;28;20490;-92
2021/08/18 01:35:32;;;;;;;22.58;10.85;;;16.30;84.30;;;;;;5012702;28;20104;-91
2021/08/18 01:38:01;;;;;;;25.40;11.85;;;16.40;84.40;;;;;;5010919;28;20467;-92
2021/08/18 01:40:29;;;;;;;25.75;11.60;;;16.30;84.40;;;;;;5013284;28;20096;-92
2021/08/18 01:42:56;;;;;;;22.73;10.30;;;16.30;84.40;;;;;;5012368;28;20112;-92
2021/08/18 01:45:34;;;;;;;29.05;11.60;;;16.30;84.30;;;;;;5013051;28;20096;-90
2021/08/18 01:48:08;;;;;;;29.58;13.02;;;16.30;84.40;;;;;;4998304;28;20469;-91
2021/08/18 01:50:44;;;;;;;29.92;13.15;;;16.30;84.40;;;;;;5013027;28;20045;-93
2021/08/18 01:53:16;;;;;;;26.27;11.00;;;16.30;84.40;;;;;;5013378;28;20080;-91
2021/08/18 01:55:43;;;;;;;18.33;10.75;;;16.40;84.40;;;;;;5012967;28;20119;-92
2021/08/18 01:58:10;;;;;;;24.25;8.82;;;16.40;84.40;;;;;;5012786;28;20050;-93
2021/08/18 02:00:39;;;;;;;27.85;11.57;;;16.30;84.30;;;;;;5012843;28;20050;-92
2021/08/18 02:03:06;;;;;;;25.73;10.75;;;16.30;84.30;;;;;;5011693;28;20042;-92
2021/08/18 02:05:34;;;;;;;26.65;10.25;;;16.40;84.30;;;;;;5012903;28;20081;-93
2021/08/18 02:08:01;;;;;;;22.65;9.85;;;16.40;84.30;;;;;;5013260;28;20454;-91
2021/08/18 02:10:28;;;;;;;25.90;11.65;;;16.40;84.30;;;;;;5012478;28;20195;-92
2021/08/18 02:12:55;;;;;;;26.33;11.35;;;16.40;84.30;;;;;;5012601;28;20050;-92
2021/08/18 02:15:27;;;;;;;23.13;11.45;;;16.30;84.30;;;;;;5011665;28;20168;-90
2021/08/18 02:17:54;;;;;;;22.63;11.48;;;16.40;84.30;;;;;;4993605;28;20050;-92
2021/08/18 02:20:25;;;;;;;27.38;10.98;;;16.40;84.40;;;;;;5013288;28;20054;-93
2021/08/18 02:22:54;;;;;;;25.80;11.27;;;16.40;84.40;;;;;;5013158;28;20112;-91
2021/08/18 02:25:22;;;;;;;22.70;10.77;;;16.40;84.40;;;;;;5013052;28;20418;-92
2021/08/18 02:27:49;;;;;;;25.73;10.48;;;16.40;84.40;;;;;;5013012;28;20469;-94
2021/08/18 02:30:24;;;;;;;23.83;11.07;;;16.30;84.40;;;;;;5012941;28;20057;-92
2021/08/18 02:32:52;;;;;;;25.52;10.05;;;16.30;84.40;;;;;;5016189;28;20041;-94
2021/08/18 02:35:21;;;;;;;21.73;10.80;;;16.30;84.40;;;;;;5017560;28;20056;-94
2021/08/18 02:37:49;;;;;;;25.20;12.05;;;16.40;84.40;;;;;;5016512;28;20514;-93
2021/08/18 02:40:21;;;;;;;24.98;11.98;;;16.30;84.40;;;;;;5016994;28;20100;-92
2021/08/18 02:42:50;;;;;;;30.92;11.63;;;16.40;84.50;;;;;;5016615;28;20054;-91
2021/08/18 02:45:18;;;;;;;18.73;9.73;;;16.40;84.50;;;;;;5016728;28;20123;-92
2021/08/18 02:47:45;;;;;;;25.00;11.25;;;16.40;84.50;;;;;;5016892;28;20057;-95
2021/08/18 02:50:15;;;;;;;22.40;11.73;;;16.30;84.50;;;;;;5017109;28;20514;-93
2021/08/18 02:52:42;;;;;;;16.77;10.38;;;16.30;84.50;;;;;;5016011;28;20081;-92
2021/08/18 02:55:09;;;;;;;19.73;10.77;;;16.30;84.50;;;;;;5016232;28;20103;-92
2021/08/18 02:57:37;;;;;;;21.92;10.25;;;16.30;84.50;;;;;;5016215;28;20096;-92
2021/08/18 03:00:05;;;;;;;21.52;11.13;;;16.30;84.60;;;;;;5016157;28;20465;-92
2021/08/18 03:02:32;;;;;;;19.48;10.75;;;16.40;84.50;;;;;;5016130;28;20104;-90
2021/08/18 03:05:00;;;;;;;24.17;12.10;;;16.30;84.60;;;;;;5016637;28;20053;-92
2021/08/18 03:07:26;;;;;;;20.95;11.73;;;16.30;84.50;;;;;;5016505;28;20050;-92
2021/08/18 03:09:53;;;;;;;19.50;11.07;;;16.30;84.60;;;;;;5016104;28;20046;-94
2021/08/18 03:12:20;;;;;;;24.45;11.93;;;16.30;84.60;;;;;;5016127;28;20059;-92
2021/08/18 03:14:47;;;;;;;20.80;11.38;;;16.30;84.60;;;;;;5016080;28;20093;-92
2021/08/18 03:17:14;;;;;;;23.33;11.80;;;16.30;84.60;;;;;;5015666;28;20053;-88
2021/08/18 03:19:41;;;;;;;19.58;10.80;;;16.40;84.60;;;;;;5015121;28;20046;-91
2021/08/18 03:22:08;;;;;;;20.90;11.57;;;16.30;84.60;;;;;;5015506;28;20502;-89
2021/08/18 03:24:35;;;;;;;28.70;13.13;;;16.30;84.60;;;;;;5015001;28;20046;-90
2021/08/18 03:27:02;;;;;;;20.77;11.65;;;16.30;84.60;;;;;;5015415;28;20111;-91
2021/08/18 03:29:29;;;;;;;22.23;11.60;;;16.30;84.60;;;;;;5015272;28;20111;-90
2021/08/18 03:31:56;;;;;;;16.60;10.32;;;16.30;84.60;;;;;;5015546;28;20116;-90
2021/08/18 03:34:23;;;;;;;18.25;11.48;;;16.30;84.60;;;;;;5015298;28;20052;-91
2021/08/18 03:36:49;;;;;;;24.92;12.00;;;16.30;84.60;;;;;;5015355;28;20053;-91
2021/08/18 03:39:16;;;;;;;19.92;10.75;;;16.30;84.60;;;;;;5015186;28;20117;-90
2021/08/18 03:41:43;;;;;;;21.00;11.57;;;16.30;84.60;;;;;;5014895;28;20104;-90
2021/08/18 03:44:10;;;;;;;19.90;11.02;;;16.30;84.60;;;;;;5015127;28;20084;-91
2021/08/18 03:46:37;;;;;;;30.67;12.95;;;16.30;84.60;;;;;;5015143;28;20089;-91
2021/08/18 03:49:04;;;;;;;20.80;12.02;;;16.30;84.60;;;;;;5014767;28;20080;-90
2021/08/18 03:51:31;;;;;;;19.83;11.52;;;16.30;84.60;;;;;;5014566;28;20502;-90
2021/08/18 03:53:58;;;;;;;21.42;11.20;;;16.30;84.60;;;;;;5015043;28;20053;-91
2021/08/18 03:56:24;;;;;;;16.65;10.45;;;16.30;84.60;;;;;;5015237;28;20070;-90
2021/08/18 03:58:51;;;;;;;14.95;9.80;;;16.30;84.60;;;;;;5014782;28;20089;-92
2021/08/18 04:01:18;;;;;;;17.92;10.43;;;16.30;84.60;;;;;;5015150;28;20054;-92
2021/08/18 04:03:45;;;;;;;17.98;12.45;;;16.30;84.60;;;;;;5014544;28;20060;-91
2021/08/18 04:06:12;;;;;;;20.30;10.88;;;16.30;84.60;;;;;;5015152;28;20105;-92
2021/08/18 04:08:39;;;;;;;16.65;9.55;;;16.30;84.60;;;;;;5014865;28;20049;-91
2021/08/18 04:11:09;;;;;;;17.95;10.38;;;16.30;84.60;;;;;;5013312;28;20046;-91
2021/08/18 04:13:36;;;;;;;20.20;10.20;;;16.30;84.60;;;;;;5014404;28;20054;-91
2021/08/18 04:16:04;;;;;;;26.33;11.70;;;16.30;84.60;;;;;;5014457;28;20049;-90
2021/08/18 04:18:31;;;;;;;17.45;10.70;;;16.30;84.60;;;;;;5014860;28;20068;-91
2021/08/18 04:20:58;;;;;;;13.02;8.77;;;16.20;84.60;;;;;;5014637;28;20065;-90
2021/08/18 04:23:25;;;;;;;13.32;9.75;;;16.30;84.60;;;;;;5014949;28;20494;-91
2021/08/18 04:25:52;;;;;;;28.73;10.95;;;16.30;84.60;;;;;;5013384;28;20399;-90
2021/08/18 04:28:19;;;;;;;25.77;10.20;;;16.30;84.60;;;;;;5013454;28;20077;-90
2021/08/18 04:30:46;;;;;;;25.90;11.32;;;16.30;84.60;;;;;;5013574;28;20556;-94
2021/08/18 04:33:13;;;;;;;15.80;10.73;;;16.30;84.50;;;;;;5014423;28;20045;-91
2021/08/18 04:35:40;;;;;;;14.48;10.52;;;16.30;84.50;;;;;;5014208;28;20046;-91
2021/08/18 04:38:07;;;;;;;19.25;10.85;;;16.30;84.50;;;;;;5014870;28;20049;-92
2021/08/18 04:40:34;;;;;;;15.20;9.30;;;16.20;84.50;;;;;;5014334;28;20050;-90
2021/08/18 04:43:01;;;;;;;21.73;11.35;;;16.30;84.50;;;;;;5014227;28;20058;-90
2021/08/18 04:45:28;;;;;;;15.80;9.55;;;16.20;84.50;;;;;;5014136;28;20108;-91
2021/08/18 04:47:56;;;;;;;17.20;11.00;;;16.20;84.50;;;;;;5014239;28;20050;-90
2021/08/18 04:50:24;;;;;;;23.30;10.93;;;16.20;84.60;;;;;;5046283;28;20049;-93
2021/08/18 04:52:51;;;;;;;19.45;11.45;;;16.30;84.60;;;;;;5013750;28;20054;-93
2021/08/18 04:55:19;;;;;;;18.20;11.07;;;16.20;84.60;;;;;;5013503;28;20042;-91
2021/08/18 04:57:46;;;;;;;15.27;10.15;;;16.20;84.60;;;;;;5013627;28;20560;-91
2021/08/18 05:00:14;;;;;;;11.98;8.43;;;16.20;84.60;;;;;;5012992;28;20564;-92
2021/08/18 05:02:41;;;;;;;18.70;11.23;;;16.20;84.70;;;;;;5013880;28;20085;-93
2021/08/18 05:05:09;;;;;;;21.95;11.60;;;16.20;84.70;;;;;;5014349;28;20056;-90
2021/08/18 05:07:35;;;;;;;20.02;11.93;;;16.20;84.70;;;;;;5014180;28;20054;-92
2021/08/18 05:10:03;;;;;;;22.00;12.20;;;16.20;84.70;;;;;;5011688;28;20100;-91
2021/08/18 05:12:31;;;;;;;23.23;11.38;;;16.20;84.70;;;;;;5013269;28;20094;-93
2021/08/18 05:14:57;;;;;;;21.73;13.18;;;16.20;84.70;;;;;;5013858;28;20108;-91
2021/08/18 05:17:24;;;;;;;20.02;12.30;;;16.20;84.70;;;;;;5014112;28;20123;-91
2021/08/18 05:19:51;;;;;;;22.67;12.90;;;16.20;84.80;;;;;;5013521;28;20379;-90
2021/08/18 05:22:18;;;;;;;23.70;11.77;;;16.20;84.80;;;;;;5013192;28;20053;-90
2021/08/18 05:24:45;;;;;;;18.15;11.77;;;16.20;84.80;;;;;;5013439;28;20046;-92
2021/08/18 05:27:12;;;;;;;16.95;12.25;;;16.20;84.80;;;;;;5012065;28;20054;-91
2021/08/18 05:29:40;;;;;;;25.83;13.48;;;16.20;84.80;;;;;;5013268;28;20502;-92
2021/08/18 05:32:07;;;;;;;21.13;12.55;;;16.20;84.90;;;;;;5007500;28;20503;-92
2021/08/18 05:34:34;;;;;;;21.52;11.32;;;16.20;84.90;;;;;;5012483;28;20053;-91
2021/08/18 05:37:01;;;;;;;24.25;12.93;;;16.20;84.90;;;;;;5013294;28;20054;-91
2021/08/18 05:39:27;;;;;;;19.98;11.65;;;16.30;84.90;;;;;;5013261;28;20049;-89
2021/08/18 05:41:55;;;;;;;20.73;12.57;;;16.20;84.90;;;;;;4996586;28;20391;-90
2021/08/18 05:44:21;;;;;;;23.58;12.57;;;16.20;84.90;;;;;;4994351;28;20062;-91
2021/08/18 05:46:49;;;;;;;23.75;12.00;;;16.30;85.00;;;;;;5012669;28;20057;-92
2021/08/18 05:49:20;;;;;;;22.88;13.25;;;16.30;85.00;;;;;;5012174;28;20060;-90
2021/08/18 05:51:49;;;;;;;20.83;12.45;;;16.30;85.00;;;;;;5012788;28;20042;-91
2021/08/18 05:54:17;;;;;;;16.92;11.55;;;16.30;85.00;;;;;;5012974;28;20046;-91
2021/08/18 05:56:44;;;;;;;23.50;12.70;;;16.30;85.00;;;;;;5012704;28;20045;-87
2021/08/18 05:59:11;;;;;;;15.93;10.73;;;16.30;85.00;;;;;;5013766;28;20088;-90
2021/08/18 06:01:38;;;;;;;24.75;12.85;;;16.40;85.00;;;;;;5012906;28;20050;-91
2021/08/18 06:04:05;;;;;;;20.65;10.48;;;16.40;85.10;;;;;;5012863;28;20050;-93
2021/08/18 06:06:32;;;;;;;16.45;10.82;;;16.40;85.00;;;;;;5010460;28;20510;-92
2021/08/18 06:08:59;;;;;;;15.70;10.05;;;16.40;85.10;;;;;;5012201;28;20115;-90
2021/08/18 06:11:26;;;;;;;15.98;10.05;;;16.40;85.10;;;;;;5011489;28;20457;-90
2021/08/18 06:13:53;;;;;;;20.02;12.60;;;16.40;85.10;;;;;;5012019;28;20057;-88
2021/08/18 06:16:21;;;;;;;26.60;12.52;;;16.40;85.10;;;;;;5012218;28;20046;-90
2021/08/18 06:18:48;;;;;;;17.77;10.93;;;16.40;85.10;;;;;;5012138;28;20467;-88
2021/08/18 06:21:15;;;;;;;19.77;11.25;;;16.40;85.10;;;;;;5012713;28;20096;-88
2021/08/18 06:23:43;;;;;;;21.58;10.27;;;16.40;85.20;;;;;;5011714;28;20104;-89
2021/08/18 06:26:10;;;;;;;20.63;11.30;;;16.50;85.10;;;;;;5012512;28;20054;-91
2021/08/18 06:28:36;;;;;;;18.75;10.50;;;16.50;85.20;;;;;;5012052;28;20054;-89
2021/08/18 06:31:03;;;;;;;19.77;11.10;;;16.50;85.20;;;;;;5011005;28;20831;-87
2021/08/18 06:33:30;;;;;;;16.70;9.98;;;16.50;85.20;;;;;;5011082;28;20422;-91
2021/08/18 06:35:57;;;;;;;18.13;10.15;;;16.60;85.20;;;;;;5012373;28;20053;-89
2021/08/18 06:38:24;;;;;;;20.25;10.40;;;16.60;85.20;;;;;;5011188;28;20050;-89
2021/08/18 06:40:51;;;;;;;14.88;9.35;;;16.60;85.20;;;;;;5011713;28;20045;-90
2021/08/18 06:43:18;;;;;;;18.15;9.32;;;16.60;85.20;;;;;;5011769;28;20053;-87
2021/08/18 06:45:45;;;;;;;19.60;9.02;;;16.60;85.20;;;;;;5011730;28;20045;-88
2021/08/18 06:48:12;;;;;;;15.77;9.07;;;16.60;85.20;;;;;;5009734;28;20050;-88
2021/08/18 06:50:39;;;;;;;14.80;8.57;;;16.60;85.20;;;;;;5001067;28;20116;-90
2021/08/18 06:53:06;;;;;;;15.23;8.38;;;16.60;85.20;;;;;;5004952;28;20049;-89
2021/08/18 06:55:34;;;;;;;11.40;7.13;;;16.60;85.20;;;;;;5011594;28;20054;-88
2021/08/18 06:58:01;;;;;;;12.57;6.95;;;16.70;85.20;;;;;;5011811;28;20437;-90
2021/08/18 07:00:28;;;;;;;15.45;7.78;;;16.60;85.10;;;;;;5011426;28;20049;-88
2021/08/18 07:02:55;;;;;;;14.55;6.82;;;16.70;85.00;;;;;;5012027;28;20511;-92
2021/08/18 07:05:23;;;;;;;12.43;6.40;;;16.70;85.00;;;;;;4992905;28;20515;-91
2021/08/18 07:07:50;;;;;;;9.57;6.70;;;16.60;84.90;;;;;;5011325;28;20117;-90
2021/08/18 07:10:17;;;;;;;13.50;5.90;;;16.70;84.90;;;;;;5011585;28;20104;-90
2021/08/18 07:12:45;;;;;;;10.73;5.88;;;16.70;84.90;;;;;;5011350;28;20112;-88
2021/08/18 07:15:12;;;;;;;9.07;5.57;;;16.70;84.90;;;;;;5008801;28;20080;-90
2021/08/18 07:17:39;;;;;;;12.98;5.63;;;16.70;84.90;;;;;;5012940;28;20111;-90
2021/08/18 07:20:07;;;;;;;9.88;6.30;;;16.80;84.90;;;;;;5013178;28;20054;-89
2021/08/18 07:22:33;;;;;;;10.90;6.05;;;16.80;84.90;;;;;;5014422;28;20103;-89
2021/08/18 07:25:01;;;;;;;10.95;5.47;;;16.80;84.90;;;;;;5014894;28;20129;-89
2021/08/18 07:27:27;;;;;;;12.35;5.70;;;16.80;84.80;;;;;;5013995;28;20050;-90
2021/08/18 07:29:56;;;;;;;11.20;4.95;;;16.80;84.80;;;;;;4999258;28;20049;-90
2021/08/18 07:32:26;;;;;;;9.55;5.20;;;16.80;84.80;;;;;;5011502;28;20105;-87
2021/08/18 07:34:52;;;;;;;11.52;4.50;;;16.90;84.80;;;;;;5014719;28;20053;-89
2021/08/18 07:37:20;;;;;;;11.88;5.13;;;16.90;84.80;;;;;;5013725;28;20103;-89
2021/08/18 07:39:46;;;;;;;7.95;4.60;;;16.90;84.80;;;;;;5013503;28;20053;-88
2021/08/18 07:42:14;;;;;;;11.32;4.50;;;16.90;84.80;;;;;;5014673;28;20091;-87
2021/08/18 07:44:41;;;;;;;9.93;4.68;;;17.00;84.70;;;;;;5013113;28;20500;-90
2021/08/18 07:47:08;;;;;;;6.88;4.00;;;17.00;84.70;;;;;;5015042;28;20100;-89
2021/08/18 07:49:36;;;;;;;11.20;4.78;;;17.10;84.70;;;;;;5014101;28;20472;-88
2021/08/18 07:52:04;;;;;;;8.00;4.00;;;17.20;84.80;;;;;;5013004;28;20053;-88
2021/08/18 07:54:32;;;;;;;11.90;4.40;;;17.30;84.80;;;;;;5014085;28;20502;-89
2021/08/18 07:56:59;;;;;;;8.68;3.75;;;17.40;84.70;;;;;;5014448;28;20050;-89
2021/08/18 07:59:26;;;;;;;8.48;4.18;;;17.40;84.60;;;;;;5013498;28;20045;-90
2021/08/18 08:01:53;;;;;;;7.55;3.78;;;17.40;84.40;;;;;;5013104;28;20112;-88
2021/08/18 08:04:20;;;;;;;8.00;3.50;;;17.50;84.30;;;;;;5013958;28;20426;-89
2021/08/18 08:06:49;;;;;;;7.70;3.33;;;17.60;84.00;;;;;;5011985;28;20100;-88
2021/08/18 08:09:16;;;;;;;11.23;3.03;;;17.70;83.60;;;;;;5013595;28;20045;-91
2021/08/18 08:11:43;;;;;;;5.30;2.60;;;17.70;82.90;;;;;;5014601;28;20061;-90
2021/08/18 08:14:10;;;;;;;10.88;2.70;;;17.70;82.70;;;;;;5014288;28;20054;-91
2021/08/18 08:16:37;;;;;;;9.82;3.10;;;17.80;82.50;;;;;;5014065;28;20107;-90
2021/08/18 08:19:04;;;;;;;5.68;2.67;;;17.80;82.40;;;;;;5014019;28;20058;-90
2021/08/18 08:21:32;;;;;;;8.05;3.00;;;17.80;82.30;;;;;;5013553;28;20191;-88
2021/08/18 08:23:59;;;;;;;8.82;3.17;;;17.90;82.30;;;;;;5014303;28;20103;-88
2021/08/18 08:26:26;;;;;;;8.73;3.22;;;17.90;82.40;;;;;;5014239;28;20050;-90
2021/08/18 08:28:53;;;;;;;4.72;2.78;;;18.00;82.30;;;;;;5012231;28;20112;-89
2021/08/18 08:31:20;;;;;;;7.45;2.90;;;18.00;82.00;;;;;;5013764;28;20104;-90
2021/08/18 08:33:47;;;;;;;6.35;2.50;;;18.10;81.70;;;;;;5013751;28;20605;-88
2021/08/18 08:36:14;;;;;;;5.05;2.63;;;18.10;81.40;;;;;;5013421;28;20046;-89
2021/08/18 08:38:41;;;;;;;5.28;2.58;;;18.10;81.30;;;;;;5013618;28;20053;-91
2021/08/18 08:41:09;;;;;;;5.60;2.92;;;18.20;81.10;;;;;;5014086;28;20069;-90
2021/08/18 08:43:40;;;;;;;5.05;2.75;;;18.20;80.90;;;;;;5013252;28;20056;-91
2021/08/18 08:46:07;;;;;;;6.10;2.50;;;18.30;80.90;;;;;;5013404;28;20107;-91
2021/08/18 08:48:37;;;;;;;4.47;2.17;;;18.40;81.00;;;;;;5013191;28;20584;-89
2021/08/18 08:51:05;;;;;;;7.90;2.40;;;18.40;81.00;;;;;;5013404;28;20054;-90
2021/08/18 08:53:33;;;;;;;5.47;2.60;;;18.40;80.90;;;;;;5012521;28;20054;-88
2021/08/18 08:56:01;;;;;;;7.90;2.60;;;18.50;80.70;;;;;;5013659;28;20092;-88
2021/08/18 08:58:28;;;;;;;6.78;2.28;;;18.60;80.60;;;;;;5036468;28;20419;-89
2021/08/18 09:00:55;;;;;;;6.18;2.58;;;18.70;80.50;;;;;;5004451;28;20042;-88
2021/08/18 09:03:23;;;;;;;5.97;2.90;;;18.70;80.30;;;;;;5012041;28;20050;-88
2021/08/18 09:05:55;;;;;;;5.57;2.40;;;18.80;80.20;;;;;;5013015;28;20096;-89
2021/08/18 09:08:23;;;;;;;5.10;2.25;;;18.90;79.70;;;;;;4993058;28;20054;-89
2021/08/18 09:11:12;;;;;;;5.18;2.28;;;18.90;79.50;;;;;;5012371;28;20080;-87
2021/08/18 09:13:42;;;;;;;4.63;2.20;;;18.90;79.30;;;;;;5012346;28;20053;-88
2021/08/18 09:16:10;;;;;;;5.65;2.47;;;18.90;79.20;;;;;;5013050;28;20053;-89
2021/08/18 09:18:47;;;;;;;5.45;2.30;;;18.90;79.20;;;;;;5012611;28;20150;-88
2021/08/18 09:21:38;;;;;;;7.22;2.42;;;18.90;79.00;;;;;;5012574;28;20046;-88
2021/08/18 09:24:27;;;;;;;4.13;2.22;;;18.90;79.10;;;;;;4998632;28;20049;-90
2021/08/18 09:26:55;;;;;;;6.30;2.05;;;19.10;79.20;;;;;;4995821;28;20046;-90
2021/08/18 09:29:46;;;;;;;5.10;1.90;;;19.10;79.00;;;;;;5013154;28;20477;-89
2021/08/18 09:32:21;;;;;;;6.22;1.73;;;19.20;78.70;;;;;;5011801;28;20053;-89
2021/08/18 09:35:09;;;;;;;7.20;2.22;;;19.30;78.60;;;;;;5040363;28;20053;-90
2021/08/18 09:37:59;;;;;;;6.93;1.95;;;19.30;78.30;;;;;;5012567;28;20446;-88
2021/08/18 09:40:30;;;;;;;3.78;2.22;;;19.30;78.10;;;;;;5012157;28;20049;-88
2021/08/18 09:43:08;;;;;;;5.68;2.42;;;19.40;78.00;;;;;;5012077;28;20046;-89
2021/08/18 09:45:38;;;;;;;4.43;2.20;;;19.40;78.00;;;;;;5012522;28;20509;-89
2021/08/18 09:48:17;;;;;;;11.27;1.95;;;19.40;78.00;;;;;;5012345;28;20053;-90
2021/08/18 09:51:02;;;;;;;5.35;2.03;;;19.40;77.00;;;;;;5010874;28;20050;-90
2021/08/18 09:53:39;;;;;;;3.63;2.00;;;19.40;76.90;;;;;;5024311;28;20069;-89
2021/08/18 09:56:11;;;;;;;7.60;2.55;;;19.40;77.10;;;;;;5026174;28;20057;-91
2021/08/18 09:58:46;;;;;;;3.45;1.85;;;19.50;77.30;;;;;;5034335;28;20097;-89
2021/08/18 10:01:15;;;;;;;4.53;1.85;;;19.40;77.30;;;;;;5006988;28;20108;-90
2021/08/18 10:03:44;;;;;;;4.32;2.25;;;19.50;77.30;;;;;;5012639;28;20046;-91
2021/08/18 10:06:12;;;;;;;7.88;2.38;;;19.50;77.60;;;;;;5012169;28;20085;-89
2021/08/18 10:08:41;;;;;;;5.32;2.00;;;19.60;77.70;;;;;;5010884;28;20072;-90
2021/08/18 10:11:11;;;;;;;6.18;2.10;;;19.60;77.60;;;;;;5009769;28;20418;-89
2021/08/18 10:13:38;;;;;;;5.05;2.20;;;19.60;77.20;;;;;;5011752;28;20045;-89
2021/08/18 10:16:05;;;;;;;3.70;2.00;;;19.60;77.20;;;;;;5004288;28;20050;-89
2021/08/18 10:18:40;;;;;;;5.25;2.20;;;19.60;77.30;;;;;;5014923;28;20056;-89
2021/08/18 10:21:16;;;;;;;6.63;2.58;;;19.60;77.40;;;;;;5024901;28;20042;-87
2021/08/18 10:23:46;;;;;;;7.47;2.17;;;19.60;77.50;;;;;;5011534;28;20062;-88
2021/08/18 10:26:34;;;;;;;4.80;2.43;;;19.50;77.80;;;;;;5021966;28;20049;-90
2021/08/18 10:29:04;;;;;;;5.35;2.38;;;19.50;77.80;;;;;;5013460;28;20843;-90
2021/08/18 10:31:40;;;;;;;4.32;2.45;;;19.50;77.90;;;;;;5010802;28;20060;-90
2021/08/18 10:34:08;;;;;;;5.10;2.72;;;19.40;77.90;;;;;;5011273;28;20549;-93
2021/08/18 10:36:41;;;;;;;6.28;3.20;;;19.40;77.90;;;;;;5011664;28;20075;-90
2021/08/18 10:39:23;;;;;;;7.43;3.03;;;19.40;78.00;;;;;;5009799;28;20050;-92
2021/08/18 10:42:14;;;;;;;7.22;3.10;;;19.50;78.20;;;;;;5008590;28;20043;-89
2021/08/18 10:44:48;;;;;;;5.75;2.72;;;19.60;78.40;;;;;;5016516;28;20046;-91
2021/08/18 10:47:34;;;;;;;6.95;2.60;;;19.70;78.00;;;;;;5030985;28;20108;-90
2021/08/18 10:50:23;;;;;;;4.43;2.70;;;19.70;77.60;;;;;;5015656;28;20053;-87
2021/08/18 10:52:52;;;;;;;5.03;2.90;;;19.80;77.00;;;;;;4995029;28;20046;-91
2021/08/18 10:55:23;;;;;;;5.82;2.70;;;19.80;76.80;;;;;;5022024;28;20053;-88
2021/08/18 10:57:51;;;;;;;4.65;2.60;;;19.80;76.70;;;;;;5022709;28;20038;-92
2021/08/18 11:00:22;;;;;;;6.22;2.35;;;19.80;76.50;;;;;;5026131;28;20075;-90
2021/08/18 11:02:53;;;;;;;6.50;3.00;;;19.80;76.40;;;;;;5028299;28;20050;-91
2021/08/18 11:05:28;;;;;;;5.82;3.70;;;19.70;76.30;;;;;;5036769;28;20057;-88
2021/08/18 11:08:07;;;;;;;5.65;3.00;;;19.60;76.30;;;;;;5017060;28;20053;-90
2021/08/18 11:10:37;;;;;;;6.25;3.22;;;19.50;76.40;;;;;;5014168;28;20119;-88
2021/08/18 11:13:06;;;;;;;8.45;3.17;;;19.50;76.60;;;;;;5011341;28;20423;-90
2021/08/18 11:15:33;;;;;;;8.68;3.65;;;19.40;76.80;;;;;;5005073;28;20041;-91
2021/08/18 11:18:04;;;;;;;6.88;3.72;;;19.40;76.90;;;;;;5015072;28;20085;-89
2021/08/18 11:20:30;;;;;;;5.63;3.60;;;19.40;77.10;;;;;;5031382;28;20053;-88
2021/08/18 11:23:00;;;;;;;9.50;4.30;;;19.30;77.20;;;;;;5016097;28;20054;-92
2021/08/18 11:25:28;;;;;;;8.65;3.88;;;19.30;77.20;;;;;;5015698;28;20560;-91
2021/08/18 11:27:58;;;;;;;6.63;3.80;;;19.30;77.50;;;;;;5021846;28;20230;-94
2021/08/18 11:30:26;;;;;;;9.13;3.78;;;19.30;77.60;;;;;;5036395;28;20049;-92
2021/08/18 11:32:55;;;;;;;7.78;3.53;;;19.30;77.80;;;;;;5030223;28;20056;-95
2021/08/18 11:35:33;;;;;;;5.82;3.70;;;19.30;77.80;;;;;;5065055;28;20107;-94
2021/08/18 11:38:05;;;;;;;8.25;3.30;;;19.30;77.80;;;;;;5023401;28;20445;-94
2021/08/18 11:40:33;;;;;;;6.28;3.35;;;19.40;77.80;;;;;;5017462;28;20054;-92
2021/08/18 11:43:01;;;;;;;7.60;3.90;;;19.40;77.70;;;;;;5015532;28;20046;-94
2021/08/18 11:45:28;;;;;;;6.97;4.10;;;19.40;77.60;;;;;;5017688;28;20042;-93
2021/08/18 11:48:11;;;;;;;8.05;4.15;;;19.50;77.60;;;;;;4995858;28;20054;-91
2021/08/18 11:50:39;;;;;;;7.78;3.90;;;19.60;77.70;;;;;;5028970;28;20563;-92
2021/08/18 11:53:08;;;;;;;8.15;4.10;;;19.70;77.60;;;;;;5015841;28;20049;-95
2021/08/18 11:55:35;;;;;;;6.05;3.90;;;19.80;77.20;;;;;;5022452;28;20099;-92
2021/08/18 11:58:05;;;;;;;6.90;3.47;;;19.80;76.40;;;;;;5029751;28;20046;-92
2021/08/18 12:00:32;;;;;;;6.55;3.38;;;19.80;76.30;;;;;;5015900;28;20566;-95
2021/08/18 12:03:00;;;;;;;7.45;3.50;;;19.80;76.00;;;;;;4998029;28;20462;-92
2021/08/18 12:05:33;;;;;;;7.90;3.90;;;19.80;76.00;;;;;;5014995;28;20049;-89
2021/08/18 12:08:16;;;;;;;6.40;3.42;;;19.80;76.10;;;;;;5029278;28;20505;-91
2021/08/18 12:10:47;;;;;;;7.43;3.53;;;19.70;76.10;;;;;;5018131;28;20112;-89
2021/08/18 12:13:17;;;;;;;5.40;3.50;;;19.70;76.00;;;;;;5007836;28;20057;-90
2021/08/18 12:15:47;;;;;;;6.55;3.38;;;19.60;75.70;;;;;;5009351;28;20050;-92
2021/08/18 12:18:34;;;;;;;8.13;3.83;;;19.60;75.70;;;;;;5022103;28;20054;-92
2021/08/18 12:21:24;;;;;;;8.70;4.03;;;19.60;76.00;;;;;;4996600;28;20137;-90
2021/08/18 12:23:56;;;;;;;8.40;3.95;;;19.50;76.30;;;;;;5027738;28;20042;-93
2021/08/18 12:26:38;;;;;;;8.10;4.50;;;19.40;76.50;;;;;;4995578;28;20108;-91
2021/08/18 12:29:08;;;;;;;6.15;3.67;;;19.40;76.80;;;;;;5032299;28;20592;-93
2021/08/18 12:32:07;;;;;;;5.95;3.70;;;19.40;77.20;;;;;;5015842;28;20049;-92
2021/08/18 12:34:44;;;;;;;7.35;4.28;;;19.40;77.60;;;;;;5022194;28;20049;-93
2021/08/18 12:37:14;;;;;;;7.13;4.45;;;19.30;77.90;;;;;;5006691;28;20057;-93
2021/08/18 12:40:02;;;;;;;5.60;4.07;;;19.30;78.00;;;;;;5001706;28;20470;-90
2021/08/18 12:42:31;;;;;;;10.77;4.45;;;19.40;78.00;;;;;;5029236;28;20457;-91
2021/08/18 12:45:06;;;;;;;7.22;4.28;;;19.30;77.30;;;;;;5029488;28;20050;-93
2021/08/18 12:47:37;;;;;;;10.43;4.40;;;19.30;77.50;;;;;;5013266;28;20441;-93